sensor_id;sensor_type;location;lat;lon;timestamp;temperature;humidity
2062;DHT22;11070;51.336;12.340;2022-09-30T00:02:22;6.80;99.90
2062;DHT22;11070;51.336;12.340;2022-09-30T00:04:47;6.80;99.90
2062;DHT22;11070;51.336;12.340;2022-09-30T00:07:14;6.80;99.90
2062;DHT22;11070;51.336;12.340;2022-09-30T00:09:39;6.70;99.90
2062;DHT22;11070;51.336;12.340;2022-09-30T00:12:05;6.80;99.90
2062;DHT22;11070;51.336;12.340;2022-09-30T00:14:31;6.70;99.90
2062;DHT22;11070;51.336;12.340;2022-09-30T00:16:56;6.70;99.90
2062;DHT22;11070;51.336;12.340;2022-09-30T00:19:22;6.60;99.90
2062;DHT22;11070;51.336;12.340;2022-09-30T00:21:47;6.60;99.90
2062;DHT22;11070;51.336;12.340;2022-09-30T00:24:13;6.60;99.90
2062;DHT22;11070;51.336;12.340;2022-09-30T00:26:39;6.60;99.90
2062;DHT22;11070;51.336;12.340;2022-09-30T00:29:04;6.50;99.90
2062;DHT22;11070;51.336;12.340;2022-09-30T00:31:32;6.50;99.90
2062;DHT22;11070;51.336;12.340;2022-09-30T00:33:58;6.50;99.90
2062;DHT22;11070;51.336;12.340;2022-09-30T00:36:40;6.50;99.90
2062;DHT22;11070;51.336;12.340;2022-09-30T00:39:10;6.50;99.90
2062;DHT22;11070;51.336;12.340;2022-09-30T00:41:36;6.40;99.90
2062;DHT22;11070;51.336;12.340;2022-09-30T00:44:37;6.40;99.90
2062;DHT22;11070;51.336;12.340;2022-09-30T00:46:47;6.40;99.90
2062;DHT22;11070;51.336;12.340;2022-09-30T00:49:18;6.30;99.90
2062;DHT22;11070;51.336;12.340;2022-09-30T00:51:55;6.30;99.90
2062;DHT22;11070;51.336;12.340;2022-09-30T00:54:25;6.30;99.90
2062;DHT22;11070;51.336;12.340;2022-09-30T00:56:55;6.30;99.90
2062;DHT22;11070;51.336;12.340;2022-09-30T00:59:26;6.30;99.90
2062;DHT22;11070;51.336;12.340;2022-09-30T01:01:53;6.20;99.90
2062;DHT22;11070;51.336;12.340;2022-09-30T01:04:21;6.20;99.90
2062;DHT22;11070;51.336;12.340;2022-09-30T01:06:48;6.20;99.90
2062;DHT22;11070;51.336;12.340;2022-09-30T01:09:15;6.20;99.90
2062;DHT22;11070;51.336;12.340;2022-09-30T01:11:40;6.20;99.90
2062;DHT22;11070;51.336;12.340;2022-09-30T01:14:26;6.20;99.90
2062;DHT22;11070;51.336;12.340;2022-09-30T01:17:08;6.30;99.90
2062;DHT22;11070;51.336;12.340;2022-09-30T01:19:49;6.30;99.90
2062;DHT22;11070;51.336;12.340;2022-09-30T01:33:26;6.40;99.90
2062;DHT22;11070;51.336;12.340;2022-09-30T01:38:29;6.30;99.90
2062;DHT22;11070;51.336;12.340;2022-09-30T01:41:21;6.30;99.90
2062;DHT22;11070;51.336;12.340;2022-09-30T01:44:18;6.30;99.90
2062;DHT22;11070;51.336;12.340;2022-09-30T01:52:23;6.20;99.90
2062;DHT22;11070;51.336;12.340;2022-09-30T01:55:06;6.20;99.90
2062;DHT22;11070;51.336;12.340;2022-09-30T01:58:20;6.20;99.90
2062;DHT22;11070;51.336;12.340;2022-09-30T02:00:18;6.20;99.90
2062;DHT22;11070;51.336;12.340;2022-09-30T02:02:49;6.30;99.90
2062;DHT22;11070;51.336;12.340;2022-09-30T02:08:03;6.20;99.90
2062;DHT22;11070;51.336;12.340;2022-09-30T02:10:34;6.20;99.90
2062;DHT22;11070;51.336;12.340;2022-09-30T02:13:28;6.20;99.90
2062;DHT22;11070;51.336;12.340;2022-09-30T02:15:58;6.20;99.90
2062;DHT22;11070;51.336;12.340;2022-09-30T02:18:33;6.30;99.90
2062;DHT22;11070;51.336;12.340;2022-09-30T02:21:02;6.30;99.90
2062;DHT22;11070;51.336;12.340;2022-09-30T02:23:35;6.20;99.90
2062;DHT22;11070;51.336;12.340;2022-09-30T02:28:37;6.30;99.90
2062;DHT22;11070;51.336;12.340;2022-09-30T02:31:07;6.30;99.90
2062;DHT22;11070;51.336;12.340;2022-09-30T02:33:41;6.30;99.90
2062;DHT22;11070;51.336;12.340;2022-09-30T02:36:17;6.20;99.90
2062;DHT22;11070;51.336;12.340;2022-09-30T02:38:45;6.20;99.90
2062;DHT22;11070;51.336;12.340;2022-09-30T02:41:19;6.20;99.90
2062;DHT22;11070;51.336;12.340;2022-09-30T02:43:47;6.20;99.90
2062;DHT22;11070;51.336;12.340;2022-09-30T02:51:52;6.20;99.90
2062;DHT22;11070;51.336;12.340;2022-09-30T02:54:29;6.20;99.90
2062;DHT22;11070;51.336;12.340;2022-09-30T02:57:00;6.20;99.90
2062;DHT22;11070;51.336;12.340;2022-09-30T02:59:26;6.20;99.90
2062;DHT22;11070;51.336;12.340;2022-09-30T03:01:52;6.20;99.90
2062;DHT22;11070;51.336;12.340;2022-09-30T03:04:21;6.20;99.90
2062;DHT22;11070;51.336;12.340;2022-09-30T03:06:47;6.20;99.90
2062;DHT22;11070;51.336;12.340;2022-09-30T03:09:13;6.20;99.90
2062;DHT22;11070;51.336;12.340;2022-09-30T03:11:39;6.20;99.90
2062;DHT22;11070;51.336;12.340;2022-09-30T03:19:50;6.10;99.90
2062;DHT22;11070;51.336;12.340;2022-09-30T03:25:26;6.00;99.90
2062;DHT22;11070;51.336;12.340;2022-09-30T03:28:26;6.00;99.90
2062;DHT22;11070;51.336;12.340;2022-09-30T03:39:48;5.90;99.90
2062;DHT22;11070;51.336;12.340;2022-09-30T03:44:45;5.90;99.90
2062;DHT22;11070;51.336;12.340;2022-09-30T03:47:16;6.00;99.90
2062;DHT22;11070;51.336;12.340;2022-09-30T03:49:54;6.00;99.90
2062;DHT22;11070;51.336;12.340;2022-09-30T03:52:22;6.00;99.90
2062;DHT22;11070;51.336;12.340;2022-09-30T03:54:53;6.00;99.90
2062;DHT22;11070;51.336;12.340;2022-09-30T03:57:19;5.90;99.90
2062;DHT22;11070;51.336;12.340;2022-09-30T03:59:45;5.90;99.90
2062;DHT22;11070;51.336;12.340;2022-09-30T04:02:10;6.00;99.90
2062;DHT22;11070;51.336;12.340;2022-09-30T04:04:38;6.00;99.90
2062;DHT22;11070;51.336;12.340;2022-09-30T04:07:05;6.00;99.90
2062;DHT22;11070;51.336;12.340;2022-09-30T04:09:31;6.00;99.90
2062;DHT22;11070;51.336;12.340;2022-09-30T04:11:56;6.00;99.90
2062;DHT22;11070;51.336;12.340;2022-09-30T04:14:22;6.00;99.90
2062;DHT22;11070;51.336;12.340;2022-09-30T04:16:47;6.10;99.90
2062;DHT22;11070;51.336;12.340;2022-09-30T04:19:13;6.10;99.90
2062;DHT22;11070;51.336;12.340;2022-09-30T04:21:38;6.00;99.90
2062;DHT22;11070;51.336;12.340;2022-09-30T04:26:30;6.00;99.90
2062;DHT22;11070;51.336;12.340;2022-09-30T04:28:56;6.10;99.90
2062;DHT22;11070;51.336;12.340;2022-09-30T04:31:23;6.10;99.90
2062;DHT22;11070;51.336;12.340;2022-09-30T04:33:49;6.10;99.90
2062;DHT22;11070;51.336;12.340;2022-09-30T04:36:15;6.00;99.90
2062;DHT22;11070;51.336;12.340;2022-09-30T04:38:41;6.00;99.90
2062;DHT22;11070;51.336;12.340;2022-09-30T04:41:07;5.90;99.90
2062;DHT22;11070;51.336;12.340;2022-09-30T04:43:34;5.80;99.90
2062;DHT22;11070;51.336;12.340;2022-09-30T04:46:00;5.70;99.90
2062;DHT22;11070;51.336;12.340;2022-09-30T04:48:25;5.70;99.90
2062;DHT22;11070;51.336;12.340;2022-09-30T04:50:53;5.60;99.90
2062;DHT22;11070;51.336;12.340;2022-09-30T04:53:18;5.60;99.90
2062;DHT22;11070;51.336;12.340;2022-09-30T04:55:44;5.50;99.90
2062;DHT22;11070;51.336;12.340;2022-09-30T04:58:11;5.50;99.90
2062;DHT22;11070;51.336;12.340;2022-09-30T05:00:37;5.40;99.90
2062;DHT22;11070;51.336;12.340;2022-09-30T05:03:03;5.40;99.90
2062;DHT22;11070;51.336;12.340;2022-09-30T05:05:29;5.40;99.90
2062;DHT22;11070;51.336;12.340;2022-09-30T05:08:03;5.40;99.90
2062;DHT22;11070;51.336;12.340;2022-09-30T05:10:29;5.40;99.90
2062;DHT22;11070;51.336;12.340;2022-09-30T05:12:55;5.30;99.90
2062;DHT22;11070;51.336;12.340;2022-09-30T05:15:22;5.30;99.90
2062;DHT22;11070;51.336;12.340;2022-09-30T05:17:48;5.30;99.90
2062;DHT22;11070;51.336;12.340;2022-09-30T05:20:14;5.30;99.90
2062;DHT22;11070;51.336;12.340;2022-09-30T05:22:40;5.20;99.90
2062;DHT22;11070;51.336;12.340;2022-09-30T05:25:07;5.20;99.90
2062;DHT22;11070;51.336;12.340;2022-09-30T05:27:33;5.20;99.90
2062;DHT22;11070;51.336;12.340;2022-09-30T05:29:59;5.30;99.90
2062;DHT22;11070;51.336;12.340;2022-09-30T05:32:24;5.30;99.90
2062;DHT22;11070;51.336;12.340;2022-09-30T05:34:50;5.40;99.90
2062;DHT22;11070;51.336;12.340;2022-09-30T05:37:16;5.40;99.90
2062;DHT22;11070;51.336;12.340;2022-09-30T05:39:41;5.50;99.90
2062;DHT22;11070;51.336;12.340;2022-09-30T05:42:07;5.50;99.90
2062;DHT22;11070;51.336;12.340;2022-09-30T05:44:33;5.60;99.90
2062;DHT22;11070;51.336;12.340;2022-09-30T05:46:58;5.60;99.90
2062;DHT22;11070;51.336;12.340;2022-09-30T05:49:24;5.70;99.90
2062;DHT22;11070;51.336;12.340;2022-09-30T05:51:51;5.80;99.90
2062;DHT22;11070;51.336;12.340;2022-09-30T05:54:17;6.20;99.90
2062;DHT22;11070;51.336;12.340;2022-09-30T05:56:42;6.80;99.90
2062;DHT22;11070;51.336;12.340;2022-09-30T05:59:08;7.60;99.90
2062;DHT22;11070;51.336;12.340;2022-09-30T06:01:34;8.40;99.90
2062;DHT22;11070;51.336;12.340;2022-09-30T06:04:00;9.10;99.90
2062;DHT22;11070;51.336;12.340;2022-09-30T06:06:26;9.90;99.90
2062;DHT22;11070;51.336;12.340;2022-09-30T06:08:51;10.80;99.90
2062;DHT22;11070;51.336;12.340;2022-09-30T06:11:23;11.60;99.90
2062;DHT22;11070;51.336;12.340;2022-09-30T06:13:50;12.30;1.00
2062;DHT22;11070;51.336;12.340;2022-09-30T06:16:17;12.80;1.00
2062;DHT22;11070;51.336;12.340;2022-09-30T06:18:43;13.20;99.90
2062;DHT22;11070;51.336;12.340;2022-09-30T06:21:11;13.70;7.50
2062;DHT22;11070;51.336;12.340;2022-09-30T06:23:37;14.60;1.00
2062;DHT22;11070;51.336;12.340;2022-09-30T06:26:04;14.60;1.00
2062;DHT22;11070;51.336;12.340;2022-09-30T06:28:30;15.30;1.00
2062;DHT22;11070;51.336;12.340;2022-09-30T06:30:59;15.90;1.00
2062;DHT22;11070;51.336;12.340;2022-09-30T06:33:25;16.50;1.00
2062;DHT22;11070;51.336;12.340;2022-09-30T06:35:52;17.00;1.00
2062;DHT22;11070;51.336;12.340;2022-09-30T06:38:17;17.30;1.00
2062;DHT22;11070;51.336;12.340;2022-09-30T06:40:44;17.60;99.90
2062;DHT22;11070;51.336;12.340;2022-09-30T06:43:13;17.80;99.90
2062;DHT22;11070;51.336;12.340;2022-09-30T06:45:39;16.80;99.90
2062;DHT22;11070;51.336;12.340;2022-09-30T06:48:05;16.70;99.90
2062;DHT22;11070;51.336;12.340;2022-09-30T06:50:35;17.30;99.90
2062;DHT22;11070;51.336;12.340;2022-09-30T06:53:02;17.70;99.90
2062;DHT22;11070;51.336;12.340;2022-09-30T06:55:31;17.60;99.90
2062;DHT22;11070;51.336;12.340;2022-09-30T06:57:57;17.40;99.90
2062;DHT22;11070;51.336;12.340;2022-09-30T07:00:23;17.30;99.90
2062;DHT22;11070;51.336;12.340;2022-09-30T07:02:49;17.00;99.90
2062;DHT22;11070;51.336;12.340;2022-09-30T07:05:16;17.10;99.90
2062;DHT22;11070;51.336;12.340;2022-09-30T07:07:42;16.80;99.90
2062;DHT22;11070;51.336;12.340;2022-09-30T07:10:09;16.40;99.90
2062;DHT22;11070;51.336;12.340;2022-09-30T07:12:35;16.50;99.90
2062;DHT22;11070;51.336;12.340;2022-09-30T07:15:01;17.10;99.90
2062;DHT22;11070;51.336;12.340;2022-09-30T07:17:27;17.60;99.90
2062;DHT22;11070;51.336;12.340;2022-09-30T07:19:53;17.90;99.90
2062;DHT22;11070;51.336;12.340;2022-09-30T07:22:19;17.70;99.90
2062;DHT22;11070;51.336;12.340;2022-09-30T07:25:00;18.20;99.90
2062;DHT22;11070;51.336;12.340;2022-09-30T07:27:28;18.60;99.90
2062;DHT22;11070;51.336;12.340;2022-09-30T07:29:56;17.20;99.90
2062;DHT22;11070;51.336;12.340;2022-09-30T07:32:22;17.30;99.90
2062;DHT22;11070;51.336;12.340;2022-09-30T07:34:48;17.90;99.90
2062;DHT22;11070;51.336;12.340;2022-09-30T07:37:15;18.80;99.90
2062;DHT22;11070;51.336;12.340;2022-09-30T07:39:42;18.90;99.90
2062;DHT22;11070;51.336;12.340;2022-09-30T07:42:09;19.30;99.90
2062;DHT22;11070;51.336;12.340;2022-09-30T07:44:35;19.70;99.90
2062;DHT22;11070;51.336;12.340;2022-09-30T07:47:06;20.20;99.90
2062;DHT22;11070;51.336;12.340;2022-09-30T07:49:32;19.70;99.90
2062;DHT22;11070;51.336;12.340;2022-09-30T07:51:59;19.20;99.90
2062;DHT22;11070;51.336;12.340;2022-09-30T07:54:30;19.30;99.90
2062;DHT22;11070;51.336;12.340;2022-09-30T07:56:58;19.40;99.90
2062;DHT22;11070;51.336;12.340;2022-09-30T07:59:24;20.00;99.90
2062;DHT22;11070;51.336;12.340;2022-09-30T08:01:51;20.00;99.90
2062;DHT22;11070;51.336;12.340;2022-09-30T08:04:18;20.40;99.90
2062;DHT22;11070;51.336;12.340;2022-09-30T08:06:48;20.00;99.90
2062;DHT22;11070;51.336;12.340;2022-09-30T08:09:16;19.30;99.90
2062;DHT22;11070;51.336;12.340;2022-09-30T08:11:42;17.60;99.90
2062;DHT22;11070;51.336;12.340;2022-09-30T08:14:13;16.90;99.90
2062;DHT22;11070;51.336;12.340;2022-09-30T08:16:39;17.60;99.90
2062;DHT22;11070;51.336;12.340;2022-09-30T08:19:05;16.90;99.90
2062;DHT22;11070;51.336;12.340;2022-09-30T08:21:30;17.20;99.90
2062;DHT22;11070;51.336;12.340;2022-09-30T08:23:57;18.90;99.90
2062;DHT22;11070;51.336;12.340;2022-09-30T08:26:23;20.10;99.90
2062;DHT22;11070;51.336;12.340;2022-09-30T08:28:49;19.90;99.90
2062;DHT22;11070;51.336;12.340;2022-09-30T08:31:18;18.90;99.90
2062;DHT22;11070;51.336;12.340;2022-09-30T08:33:43;17.50;99.90
2062;DHT22;11070;51.336;12.340;2022-09-30T08:36:11;15.60;99.90
2062;DHT22;11070;51.336;12.340;2022-09-30T08:38:38;15.10;1.00
2062;DHT22;11070;51.336;12.340;2022-09-30T08:46:47;15.00;1.00
2062;DHT22;11070;51.336;12.340;2022-09-30T08:52:16;21.00;99.90
2062;DHT22;11070;51.336;12.340;2022-09-30T08:54:46;21.70;99.90
2062;DHT22;11070;51.336;12.340;2022-09-30T08:57:12;24.00;99.90
2062;DHT22;11070;51.336;12.340;2022-09-30T09:02:23;25.60;99.90
2062;DHT22;11070;51.336;12.340;2022-09-30T09:04:53;24.40;99.90
2062;DHT22;11070;51.336;12.340;2022-09-30T09:20:14;28.00;99.90
2062;DHT22;11070;51.336;12.340;2022-09-30T09:22:41;26.50;99.90
2062;DHT22;11070;51.336;12.340;2022-09-30T09:25:20;25.90;99.90
2062;DHT22;11070;51.336;12.340;2022-09-30T09:27:51;26.00;99.90
2062;DHT22;11070;51.336;12.340;2022-09-30T09:30:20;25.60;99.90
2062;DHT22;11070;51.336;12.340;2022-09-30T09:33:00;25.40;99.90
2062;DHT22;11070;51.336;12.340;2022-09-30T09:38:36;21.50;99.90
2062;DHT22;11070;51.336;12.340;2022-09-30T09:49:38;23.20;99.90
2062;DHT22;11070;51.336;12.340;2022-09-30T09:54:43;23.80;99.90
2062;DHT22;11070;51.336;12.340;2022-09-30T09:57:14;24.90;99.90
2062;DHT22;11070;51.336;12.340;2022-09-30T10:00:05;26.60;99.90
2062;DHT22;11070;51.336;12.340;2022-09-30T10:03:04;27.90;99.90
2062;DHT22;11070;51.336;12.340;2022-09-30T10:05:32;27.60;99.90
2062;DHT22;11070;51.336;12.340;2022-09-30T10:08:18;24.50;99.90
2062;DHT22;11070;51.336;12.340;2022-09-30T10:10:52;23.30;99.90
2062;DHT22;11070;51.336;12.340;2022-09-30T10:13:23;24.30;99.90
2062;DHT22;11070;51.336;12.340;2022-09-30T10:16:00;25.40;99.90
2062;DHT22;11070;51.336;12.340;2022-09-30T10:18:32;26.00;99.90
2062;DHT22;11070;51.336;12.340;2022-09-30T10:21:01;25.70;99.90
2062;DHT22;11070;51.336;12.340;2022-09-30T10:23:34;24.80;99.90
2062;DHT22;11070;51.336;12.340;2022-09-30T10:28:52;23.10;99.90
2062;DHT22;11070;51.336;12.340;2022-09-30T10:31:36;24.10;99.90
2062;DHT22;11070;51.336;12.340;2022-09-30T10:36:55;24.80;99.90
2062;DHT22;11070;51.336;12.340;2022-09-30T10:42:09;24.90;99.90
2062;DHT22;11070;51.336;12.340;2022-09-30T10:45:17;25.50;99.90
2062;DHT22;11070;51.336;12.340;2022-09-30T10:47:48;24.20;99.90
2062;DHT22;11070;51.336;12.340;2022-09-30T10:50:19;24.60;99.90
2062;DHT22;11070;51.336;12.340;2022-09-30T10:52:56;24.30;99.90
2062;DHT22;11070;51.336;12.340;2022-09-30T10:55:31;25.00;99.90
2062;DHT22;11070;51.336;12.340;2022-09-30T11:00:48;25.30;99.90
2062;DHT22;11070;51.336;12.340;2022-09-30T11:03:21;26.20;99.90
2062;DHT22;11070;51.336;12.340;2022-09-30T11:05:50;24.40;99.90
2062;DHT22;11070;51.336;12.340;2022-09-30T11:08:21;22.60;99.90
2062;DHT22;11070;51.336;12.340;2022-09-30T11:11:12;21.40;99.90
2062;DHT22;11070;51.336;12.340;2022-09-30T11:13:49;22.70;99.90
2062;DHT22;11070;51.336;12.340;2022-09-30T11:16:28;25.10;99.90
2062;DHT22;11070;51.336;12.340;2022-09-30T11:21:45;26.40;99.90
2062;DHT22;11070;51.336;12.340;2022-09-30T11:42:56;28.70;99.90
2062;DHT22;11070;51.336;12.340;2022-09-30T11:58:49;27.40;99.90
2062;DHT22;11070;51.336;12.340;2022-09-30T12:01:52;26.10;99.90
2062;DHT22;11070;51.336;12.340;2022-09-30T12:04:27;25.60;99.90
2062;DHT22;11070;51.336;12.340;2022-09-30T12:07:07;27.40;99.90
2062;DHT22;11070;51.336;12.340;2022-09-30T12:09:48;28.40;99.90
2062;DHT22;11070;51.336;12.340;2022-09-30T12:12:17;27.50;99.90
2062;DHT22;11070;51.336;12.340;2022-09-30T12:14:54;27.20;99.90
2062;DHT22;11070;51.336;12.340;2022-09-30T12:20:02;25.60;99.90
2062;DHT22;11070;51.336;12.340;2022-09-30T12:22:35;24.00;99.90
2062;DHT22;11070;51.336;12.340;2022-09-30T12:25:22;23.80;99.90
2062;DHT22;11070;51.336;12.340;2022-09-30T12:28:20;25.70;99.90
2062;DHT22;11070;51.336;12.340;2022-09-30T12:33:55;25.20;99.90
2062;DHT22;11070;51.336;12.340;2022-09-30T12:37:04;24.90;99.90
2062;DHT22;11070;51.336;12.340;2022-09-30T12:45:34;23.10;99.90
2062;DHT22;11070;51.336;12.340;2022-09-30T12:48:06;23.00;99.90
2062;DHT22;11070;51.336;12.340;2022-09-30T12:50:54;21.40;99.90
2062;DHT22;11070;51.336;12.340;2022-09-30T12:53:29;20.10;99.90
2062;DHT22;11070;51.336;12.340;2022-09-30T12:56:11;20.80;99.90
2062;DHT22;11070;51.336;12.340;2022-09-30T12:58:46;21.20;99.90
2062;DHT22;11070;51.336;12.340;2022-09-30T13:01:24;22.60;99.90
2062;DHT22;11070;51.336;12.340;2022-09-30T13:04:14;22.90;99.90
2062;DHT22;11070;51.336;12.340;2022-09-30T13:11:45;22.70;99.90
2062;DHT22;11070;51.336;12.340;2022-09-30T13:19:33;24.50;99.90
2062;DHT22;11070;51.336;12.340;2022-09-30T13:27:46;21.70;99.90
2062;DHT22;11070;51.336;12.340;2022-09-30T13:32:47;20.80;99.90
2062;DHT22;11070;51.336;12.340;2022-09-30T13:35:46;21.00;99.90
2062;DHT22;11070;51.336;12.340;2022-09-30T13:40:58;21.80;99.90
2062;DHT22;11070;51.336;12.340;2022-09-30T13:43:46;21.60;99.90
2062;DHT22;11070;51.336;12.340;2022-09-30T13:48:48;23.40;99.90
2062;DHT22;11070;51.336;12.340;2022-09-30T13:51:18;21.90;99.90
2062;DHT22;11070;51.336;12.340;2022-09-30T13:53:49;22.00;99.90
2062;DHT22;11070;51.336;12.340;2022-09-30T13:56:22;23.60;99.90
2062;DHT22;11070;51.336;12.340;2022-09-30T13:59:05;23.50;99.90
2062;DHT22;11070;51.336;12.340;2022-09-30T14:07:12;21.40;99.90
2062;DHT22;11070;51.336;12.340;2022-09-30T14:12:25;19.20;99.90
2062;DHT22;11070;51.336;12.340;2022-09-30T14:15:16;19.10;99.90
2062;DHT22;11070;51.336;12.340;2022-09-30T14:18:07;19.90;99.90
2062;DHT22;11070;51.336;12.340;2022-09-30T14:23:34;22.10;99.90
2062;DHT22;11070;51.336;12.340;2022-09-30T14:31:29;22.00;99.90
2062;DHT22;11070;51.336;12.340;2022-09-30T14:33:56;21.60;99.90
2062;DHT22;11070;51.336;12.340;2022-09-30T14:36:23;21.90;99.90
2062;DHT22;11070;51.336;12.340;2022-09-30T14:38:52;22.50;99.90
2062;DHT22;11070;51.336;12.340;2022-09-30T14:41:22;22.50;99.90
2062;DHT22;11070;51.336;12.340;2022-09-30T14:43:58;22.50;99.90
2062;DHT22;11070;51.336;12.340;2022-09-30T14:46:34;22.80;99.90
2062;DHT22;11070;51.336;12.340;2022-09-30T14:49:07;23.40;99.90
2062;DHT22;11070;51.336;12.340;2022-09-30T14:51:41;24.30;99.90
2062;DHT22;11070;51.336;12.340;2022-09-30T14:54:22;23.30;99.90
2062;DHT22;11070;51.336;12.340;2022-09-30T14:56:50;23.40;99.90
2062;DHT22;11070;51.336;12.340;2022-09-30T14:59:21;23.70;99.90
2062;DHT22;11070;51.336;12.340;2022-09-30T15:01:50;23.60;99.90
2062;DHT22;11070;51.336;12.340;2022-09-30T15:04:33;23.30;99.90
2062;DHT22;11070;51.336;12.340;2022-09-30T15:07:03;23.30;99.90
2062;DHT22;11070;51.336;12.340;2022-09-30T15:12:20;23.30;99.90
2062;DHT22;11070;51.336;12.340;2022-09-30T15:14:52;23.20;99.90
2062;DHT22;11070;51.336;12.340;2022-09-30T15:17:36;22.90;99.90
2062;DHT22;11070;51.336;12.340;2022-09-30T15:22:50;23.30;99.90
2062;DHT22;11070;51.336;12.340;2022-09-30T15:25:18;22.50;99.90
2062;DHT22;11070;51.336;12.340;2022-09-30T15:27:45;21.60;99.90
2062;DHT22;11070;51.336;12.340;2022-09-30T15:32:39;22.20;99.90
2062;DHT22;11070;51.336;12.340;2022-09-30T15:35:25;22.20;99.90
2062;DHT22;11070;51.336;12.340;2022-09-30T15:37:51;22.40;99.90
2062;DHT22;11070;51.336;12.340;2022-09-30T15:40:20;22.10;99.90
2062;DHT22;11070;51.336;12.340;2022-09-30T15:43:10;21.00;99.90
2062;DHT22;11070;51.336;12.340;2022-09-30T15:45:42;20.40;99.90
2062;DHT22;11070;51.336;12.340;2022-09-30T15:50:51;20.70;99.90
2062;DHT22;11070;51.336;12.340;2022-09-30T15:53:30;20.60;99.90
2062;DHT22;11070;51.336;12.340;2022-09-30T15:55:58;20.70;99.90
2062;DHT22;11070;51.336;12.340;2022-09-30T15:58:38;20.80;99.90
2062;DHT22;11070;51.336;12.340;2022-09-30T16:01:31;21.00;99.90
2062;DHT22;11070;51.336;12.340;2022-09-30T16:04:20;21.20;99.90
2062;DHT22;11070;51.336;12.340;2022-09-30T16:07:07;20.90;99.90
2062;DHT22;11070;51.336;12.340;2022-09-30T16:09:38;20.70;99.90
2062;DHT22;11070;51.336;12.340;2022-09-30T16:14:45;20.30;99.90
2062;DHT22;11070;51.336;12.340;2022-09-30T16:17:35;20.10;99.90
2062;DHT22;11070;51.336;12.340;2022-09-30T16:20:10;19.90;99.90
2062;DHT22;11070;51.336;12.340;2022-09-30T16:28:08;19.50;99.90
2062;DHT22;11070;51.336;12.340;2022-09-30T16:30:47;18.70;99.90
2062;DHT22;11070;51.336;12.340;2022-09-30T16:33:16;18.30;99.90
2062;DHT22;11070;51.336;12.340;2022-09-30T16:35:44;18.10;99.90
2062;DHT22;11070;51.336;12.340;2022-09-30T16:38:14;17.80;99.90
2062;DHT22;11070;51.336;12.340;2022-09-30T16:40:40;17.70;99.90
2062;DHT22;11070;51.336;12.340;2022-09-30T16:43:06;17.50;99.90
2062;DHT22;11070;51.336;12.340;2022-09-30T16:45:32;17.30;99.90
2062;DHT22;11070;51.336;12.340;2022-09-30T16:47:59;17.10;99.90
2062;DHT22;11070;51.336;12.340;2022-09-30T16:53:10;16.50;99.90
2062;DHT22;11070;51.336;12.340;2022-09-30T16:55:37;16.40;99.90
2062;DHT22;11070;51.336;12.340;2022-09-30T16:58:04;16.20;99.90
2062;DHT22;11070;51.336;12.340;2022-09-30T17:00:30;15.90;99.90
2062;DHT22;11070;51.336;12.340;2022-09-30T17:02:58;15.80;99.90
2062;DHT22;11070;51.336;12.340;2022-09-30T17:05:25;15.60;99.90
2062;DHT22;11070;51.336;12.340;2022-09-30T17:07:58;15.50;1.00
2062;DHT22;11070;51.336;12.340;2022-09-30T17:10:30;15.40;1.00
2062;DHT22;11070;51.336;12.340;2022-09-30T17:12:57;15.20;1.00
2062;DHT22;11070;51.336;12.340;2022-09-30T17:15:30;15.00;1.00
2062;DHT22;11070;51.336;12.340;2022-09-30T17:17:56;14.90;1.00
2062;DHT22;11070;51.336;12.340;2022-09-30T17:20:23;14.80;1.00
2062;DHT22;11070;51.336;12.340;2022-09-30T17:22:49;14.60;1.00
2062;DHT22;11070;51.336;12.340;2022-09-30T17:25:16;14.60;1.00
2062;DHT22;11070;51.336;12.340;2022-09-30T17:27:42;14.50;1.00
2062;DHT22;11070;51.336;12.340;2022-09-30T17:30:11;14.40;1.00
2062;DHT22;11070;51.336;12.340;2022-09-30T17:32:41;14.20;1.00
2062;DHT22;11070;51.336;12.340;2022-09-30T17:35:08;14.10;99.90
2062;DHT22;11070;51.336;12.340;2022-09-30T17:37:34;14.00;99.90
2062;DHT22;11070;51.336;12.340;2022-09-30T17:40:01;13.90;99.90
2062;DHT22;11070;51.336;12.340;2022-09-30T17:42:47;13.80;1.00
2062;DHT22;11070;51.336;12.340;2022-09-30T17:45:31;13.60;1.00
2062;DHT22;11070;51.336;12.340;2022-09-30T17:47:57;13.50;1.00
2062;DHT22;11070;51.336;12.340;2022-09-30T17:50:23;13.40;1.00
2062;DHT22;11070;51.336;12.340;2022-09-30T17:52:49;13.40;99.90
2062;DHT22;11070;51.336;12.340;2022-09-30T17:55:16;13.30;1.00
2062;DHT22;11070;51.336;12.340;2022-09-30T17:57:41;13.30;1.00
2062;DHT22;11070;51.336;12.340;2022-09-30T18:00:09;13.20;1.00
2062;DHT22;11070;51.336;12.340;2022-09-30T18:02:37;13.20;99.90
2062;DHT22;11070;51.336;12.340;2022-09-30T18:05:06;13.10;99.90
2062;DHT22;11070;51.336;12.340;2022-09-30T18:07:32;13.10;1.00
2062;DHT22;11070;51.336;12.340;2022-09-30T18:09:57;13.00;1.00
2062;DHT22;11070;51.336;12.340;2022-09-30T18:12:23;12.90;1.00
2062;DHT22;11070;51.336;12.340;2022-09-30T18:14:49;12.90;1.00
2062;DHT22;11070;51.336;12.340;2022-09-30T18:17:14;12.90;1.00
2062;DHT22;11070;51.336;12.340;2022-09-30T18:19:40;12.90;99.90
2062;DHT22;11070;51.336;12.340;2022-09-30T18:22:06;12.80;1.00
2062;DHT22;11070;51.336;12.340;2022-09-30T18:24:32;12.80;99.90
2062;DHT22;11070;51.336;12.340;2022-09-30T18:27:19;12.80;1.00
2062;DHT22;11070;51.336;12.340;2022-09-30T18:29:47;12.70;1.00
2062;DHT22;11070;51.336;12.340;2022-09-30T18:32:14;12.60;1.00
2062;DHT22;11070;51.336;12.340;2022-09-30T18:34:43;12.50;99.90
2062;DHT22;11070;51.336;12.340;2022-09-30T18:37:09;12.40;99.90
2062;DHT22;11070;51.336;12.340;2022-09-30T18:39:36;12.30;1.00
2062;DHT22;11070;51.336;12.340;2022-09-30T18:42:03;12.30;99.90
2062;DHT22;11070;51.336;12.340;2022-09-30T18:44:30;12.20;99.90
2062;DHT22;11070;51.336;12.340;2022-09-30T18:47:01;12.20;1.00
2062;DHT22;11070;51.336;12.340;2022-09-30T18:49:27;12.00;46.10
2062;DHT22;11070;51.336;12.340;2022-09-30T18:51:53;11.90;99.90
2062;DHT22;11070;51.336;12.340;2022-09-30T18:54:19;11.80;1.00
2062;DHT22;11070;51.336;12.340;2022-09-30T18:56:45;11.80;99.90
2062;DHT22;11070;51.336;12.340;2022-09-30T18:59:11;11.80;99.90
2062;DHT22;11070;51.336;12.340;2022-09-30T19:01:41;11.80;1.00
2062;DHT22;11070;51.336;12.340;2022-09-30T19:04:13;11.80;1.00
2062;DHT22;11070;51.336;12.340;2022-09-30T19:06:42;11.70;1.00
2062;DHT22;11070;51.336;12.340;2022-09-30T19:09:08;11.60;1.00
2062;DHT22;11070;51.336;12.340;2022-09-30T19:11:37;11.60;1.00
2062;DHT22;11070;51.336;12.340;2022-09-30T19:14:13;11.50;1.00
2062;DHT22;11070;51.336;12.340;2022-09-30T19:16:42;11.50;1.00
2062;DHT22;11070;51.336;12.340;2022-09-30T19:19:08;11.50;1.00
2062;DHT22;11070;51.336;12.340;2022-09-30T19:21:36;11.40;1.00
2062;DHT22;11070;51.336;12.340;2022-09-30T19:24:07;11.40;1.00
2062;DHT22;11070;51.336;12.340;2022-09-30T19:26:36;11.30;99.90
2062;DHT22;11070;51.336;12.340;2022-09-30T19:29:04;11.30;99.90
2062;DHT22;11070;51.336;12.340;2022-09-30T19:31:30;11.20;99.90